Festina, Iowa
Current Conditions -  °F | °C
As of 8:15 AM on Monday 20 Oct 2014 (Local Time) from KDEH Reporting Station
Clear Clear  
Wind Chill: 46°   Ceiling: Unl
Heat Index: 46°   Visibility: 10mi
Dew Point: 43°   Wind: 0mph
Humidity: 87%   Direction: NA
Pressure: 29.95"   Gusts: NA
Location:  43.1257°N, 91.9025°W
Report Text: KDEH 201315Z AUTO 00000KT 10SM CLR 08/06 A2995 RMK AO2
Loading
Personal Weather Stations






























Interactive Weather Map New forecast layout! Learn more

10-Day Weather Forecast

Advertisements
Track Severe Weather on mobile